Westmark, Nebraska
Current Conditions -  °F | °C
As of 7:35 PM on Monday 24 Nov 2014 (Local Time) from KHDE Reporting Station
Clear Clear  
Wind Chill: 21°   Ceiling: Unl
Heat Index: 26°   Visibility: 10mi
Dew Point: 13°   Wind: 5mph
Humidity: 58%   Direction: 300°WNW
Pressure: 30.05"   Gusts: NA
Location:  40.5759°N, 99.537°W
Report Text: KHDE 250135Z AUTO 30004KT 10SM CLR M03/M10 A3005 RMK AO2 T10311104
Loading
Personal Weather Stations






























Interactive Weather Map New forecast layout! Learn more

10-Day Weather Forecast

Advertisements
Track Severe Weather on mobile